Landing, New Jersey
Current Conditions -  °F | °C
As of 3:35 AM on Sunday 23 Nov 2014 (Local Time) from KMMU Reporting Station
NA  
Wind Chill: 40°   Ceiling: NA
Heat Index: 43°   Visibility: 10mi
Dew Point: 19°   Wind: 5mph
Humidity: 39%   Direction: 220°SW
Pressure: 30.16"   Gusts: NA
Location:  40.91°N, 74.66°W
Report Text: KMMU 230835Z AUTO 22004KT 10SM 06/M07 A3016 RMK AO2
Loading
Personal Weather Stations






























Interactive Weather Map New forecast layout! Learn more

10-Day Weather Forecast

Advertisements
Track Severe Weather on mobile